Time;durP1;ratioP1;P1;durP2;ratioP2;P2;SDS_P1;SDS_P2;PMS_P1;PMS_P2;Temp;Humidity;BMP_temperature;BMP_pressure;BME280_temperature;BME280_humidity;BME280_pressure;Samples;Min_cycle;Max_cycle;Signal;HPM_P1;HPM_P2
2023/03/18 00:01:17;;;;;;;5.40;2.20;;;15.10;83.30;;;;;;4760177;30;20031;-75
2023/03/18 00:03:44;;;;;;;8.45;2.60;;;15.00;83.20;;;;;;4789948;30;20031;-75
2023/03/18 00:06:17;;;;;;;5.50;2.35;;;15.00;83.30;;;;;;4790486;29;20039;-75
2023/03/18 00:08:45;;;;;;;6.22;2.50;;;15.00;83.30;;;;;;4789793;30;20036;-75
2023/03/18 00:11:12;;;;;;;3.72;2.15;;;15.10;83.40;;;;;;4789643;29;20077;-75
2023/03/18 00:13:40;;;;;;;8.73;2.15;;;15.00;83.50;;;;;;4791667;30;20051;-74
2023/03/18 00:16:07;;;;;;;5.43;2.47;;;15.00;83.50;;;;;;4775310;30;20449;-74
2023/03/18 00:18:33;;;;;;;6.28;2.25;;;15.00;83.70;;;;;;4792706;30;20473;-74
2023/03/18 00:20:59;;;;;;;5.70;2.35;;;15.00;83.80;;;;;;4790932;30;20042;-75
2023/03/18 00:23:26;;;;;;;5.57;2.33;;;15.00;84.00;;;;;;4790730;29;20056;-74
2023/03/18 00:25:55;;;;;;;5.38;2.70;;;15.00;84.00;;;;;;4790416;30;20047;-74
2023/03/18 00:28:22;;;;;;;7.18;3.05;;;14.90;84.10;;;;;;4789294;30;20035;-74
2023/03/18 00:30:49;;;;;;;6.10;2.83;;;14.90;84.30;;;;;;4774309;30;20472;-74
2023/03/18 00:33:15;;;;;;;7.20;2.38;;;14.90;84.50;;;;;;4790227;30;20036;-74
2023/03/18 00:35:41;;;;;;;4.45;2.30;;;14.90;84.60;;;;;;4789365;30;20035;-74
2023/03/18 00:38:08;;;;;;;5.80;2.58;;;14.90;84.70;;;;;;4790312;29;20546;-74
2023/03/18 00:40:52;;;;;;;7.38;2.78;;;14.90;84.70;;;;;;4774317;29;20104;-74
2023/03/18 00:43:21;;;;;;;5.97;2.50;;;14.90;84.80;;;;;;4790317;30;20031;-75
2023/03/18 00:45:48;;;;;;;5.03;2.50;;;14.90;85.40;;;;;;4788888;29;20048;-74
2023/03/18 00:48:14;;;;;;;7.97;2.80;;;14.90;84.80;;;;;;4788968;29;20035;-74
2023/03/18 00:50:40;;;;;;;6.25;2.85;;;14.90;85.00;;;;;;4773386;30;20036;-75
2023/03/18 00:53:06;;;;;;;6.22;2.65;;;14.90;85.00;;;;;;4789867;29;20050;-74
2023/03/18 00:55:32;;;;;;;9.25;2.90;;;15.00;85.10;;;;;;4790059;30;20460;-74
2023/03/18 00:57:58;;;;;;;5.38;2.67;;;15.00;85.20;;;;;;4773803;29;20118;-74
2023/03/18 01:00:25;;;;;;;6.25;3.08;;;15.00;85.30;;;;;;4789063;30;20196;-74
2023/03/18 01:02:51;;;;;;;6.15;2.70;;;15.00;85.30;;;;;;4789988;30;20052;-75
2023/03/18 01:05:17;;;;;;;6.65;2.83;;;15.00;85.40;;;;;;4790117;30;20047;-75
2023/03/18 01:07:43;;;;;;;6.68;3.05;;;15.00;85.40;;;;;;4788062;30;20176;-75
2023/03/18 01:10:13;;;;;;;10.13;3.20;;;15.00;85.50;;;;;;4789820;30;20399;-76
2023/03/18 01:12:40;;;;;;;10.50;3.90;;;15.00;85.40;;;;;;4788399;30;20070;-76
2023/03/18 01:15:08;;;;;;;6.50;2.97;;;15.00;85.40;;;;;;4788507;29;20050;-76
2023/03/18 01:17:34;;;;;;;5.82;3.25;;;15.00;85.50;;;;;;4789590;29;20110;-75
2023/03/18 01:19:59;;;;;;;7.43;3.22;;;15.00;85.60;;;;;;4772800;30;20153;-75
2023/03/18 01:22:25;;;;;;;9.70;3.05;;;15.00;85.60;;;;;;4773462;30;20046;-74
2023/03/18 01:24:51;;;;;;;7.57;3.47;;;15.00;85.70;;;;;;4773536;30;20062;-75
2023/03/18 01:27:17;;;;;;;7.25;3.50;;;15.00;85.70;;;;;;4773707;30;20031;-75
2023/03/18 01:29:45;;;;;;;7.68;3.80;;;15.00;85.80;;;;;;4769550;30;20034;-75
2023/03/18 01:32:12;;;;;;;6.82;3.60;;;15.00;85.80;;;;;;4755917;30;20116;-75
2023/03/18 01:34:40;;;;;;;6.85;3.78;;;15.00;85.90;;;;;;4781276;29;20045;-76
2023/03/18 01:37:06;;;;;;;8.18;4.68;;;15.00;86.00;;;;;;4790065;30;20445;-75
2023/03/18 01:39:33;;;;;;;7.57;4.05;;;15.00;86.20;;;;;;4773086;30;20419;-75
2023/03/18 01:41:59;;;;;;;9.63;4.65;;;15.00;86.30;;;;;;4773383;30;20035;-75
2023/03/18 01:44:26;;;;;;;8.63;4.65;;;15.00;86.30;;;;;;4789039;30;20046;-75
2023/03/18 01:46:52;;;;;;;7.72;4.45;;;15.00;86.30;;;;;;4788040;30;20488;-75
2023/03/18 01:49:31;;;;;;;8.07;4.70;;;15.00;86.40;;;;;;4772890;30;20070;-75
2023/03/18 01:52:15;;;;;;;8.48;5.13;;;15.00;86.50;;;;;;4787883;30;20165;-75
2023/03/18 01:55:02;;;;;;;11.18;5.63;;;15.00;86.40;;;;;;4787967;29;20107;-75
2023/03/18 01:57:31;;;;;;;8.02;5.05;;;15.00;86.50;;;;;;4789033;30;20035;-75
2023/03/18 01:59:58;;;;;;;10.13;5.53;;;15.00;86.50;;;;;;4789091;30;20031;-75
2023/03/18 02:02:25;;;;;;;9.70;5.30;;;15.00;86.70;;;;;;4789034;29;20118;-75
2023/03/18 02:04:53;;;;;;;7.18;4.25;;;15.00;86.80;;;;;;4787616;30;20152;-75
2023/03/18 02:07:24;;;;;;;7.38;3.90;;;15.00;86.90;;;;;;4790749;30;20028;-75
2023/03/18 02:09:51;;;;;;;8.90;4.33;;;15.00;86.90;;;;;;4793582;30;20058;-74
2023/03/18 02:12:28;;;;;;;8.80;4.50;;;15.00;87.00;;;;;;4793865;30;20284;-74
2023/03/18 02:14:54;;;;;;;9.43;4.53;;;15.00;87.00;;;;;;4789498;30;20496;-75
2023/03/18 02:17:28;;;;;;;6.85;4.13;;;15.00;87.10;;;;;;4787679;29;20084;-75
2023/03/18 02:20:15;;;;;;;7.72;4.03;;;15.00;87.30;;;;;;4788222;30;20039;-74
2023/03/18 02:22:46;;;;;;;8.80;4.55;;;15.00;87.40;;;;;;4788655;30;20107;-75
2023/03/18 02:25:32;;;;;;;7.38;4.45;;;15.00;87.50;;;;;;4788568;29;20408;-75
2023/03/18 02:28:02;;;;;;;10.15;4.85;;;15.00;87.80;;;;;;4787867;30;20035;-74
2023/03/18 02:30:32;;;;;;;12.82;4.68;;;15.00;87.70;;;;;;4788544;30;20031;-75
2023/03/18 02:32:59;;;;;;;10.38;5.45;;;14.90;87.70;;;;;;4788292;30;20031;-74
2023/03/18 02:35:27;;;;;;;13.07;5.90;;;14.90;87.90;;;;;;4788419;30;20047;-74
2023/03/18 02:37:53;;;;;;;10.02;5.28;;;15.00;88.20;;;;;;4787001;29;20400;-74
2023/03/18 02:40:26;;;;;;;8.80;5.30;;;15.00;88.50;;;;;;4772256;29;20039;-74
2023/03/18 02:42:52;;;;;;;8.10;5.03;;;14.90;88.60;;;;;;4788516;30;20050;-73
2023/03/18 02:46:01;;;;;;;9.77;5.20;;;14.90;88.70;;;;;;4788452;30;20039;-73
2023/03/18 02:48:33;;;;;;;10.00;5.30;;;14.90;88.80;;;;;;4745603;30;20050;-74
2023/03/18 02:50:59;;;;;;;14.43;5.78;;;14.90;88.80;;;;;;4786719;30;20129;-74
2023/03/18 02:53:25;;;;;;;13.27;5.70;;;14.90;88.90;;;;;;4757180;30;20039;-74
2023/03/18 02:55:51;;;;;;;10.25;5.70;;;14.90;88.90;;;;;;4771978;30;20054;-73
2023/03/18 02:58:17;;;;;;;10.65;5.63;;;14.90;89.00;;;;;;4787863;29;20039;-74
2023/03/18 03:00:43;;;;;;;12.48;6.03;;;14.90;89.20;;;;;;4772202;30;20047;-73
2023/03/18 03:03:08;;;;;;;9.43;6.30;;;14.80;89.30;;;;;;4772062;30;20039;-74
2023/03/18 03:05:34;;;;;;;9.23;5.15;;;14.80;89.60;;;;;;4772216;30;20043;-73
2023/03/18 03:08:01;;;;;;;10.30;5.60;;;14.70;89.80;;;;;;4786659;29;20057;-73
2023/03/18 03:10:27;;;;;;;12.18;5.90;;;14.70;90.00;;;;;;4787680;30;20440;-74
2023/03/18 03:12:53;;;;;;;12.13;5.95;;;14.70;90.10;;;;;;4786507;29;20397;-73
2023/03/18 03:15:19;;;;;;;10.43;5.88;;;14.70;90.30;;;;;;4771414;30;20046;-73
2023/03/18 03:17:47;;;;;;;10.93;5.57;;;14.60;90.30;;;;;;4786440;29;20039;-73
2023/03/18 03:20:14;;;;;;;10.63;5.13;;;14.70;90.40;;;;;;4785930;29;20038;-73
2023/03/18 03:22:40;;;;;;;10.80;5.40;;;14.60;90.50;;;;;;4787935;30;20035;-75
2023/03/18 03:25:08;;;;;;;10.13;5.65;;;14.60;90.60;;;;;;4786037;29;20115;-76
2023/03/18 03:27:35;;;;;;;10.60;5.53;;;14.60;90.80;;;;;;4787472;30;20039;-73
2023/03/18 03:30:01;;;;;;;12.13;5.97;;;14.60;90.90;;;;;;4787641;30;20073;-73
2023/03/18 03:32:27;;;;;;;10.07;6.43;;;14.60;91.10;;;;;;4787703;29;20063;-74
2023/03/18 03:34:53;;;;;;;13.10;6.90;;;14.60;91.40;;;;;;4771749;30;20070;-73
2023/03/18 03:37:19;;;;;;;13.30;6.22;;;14.50;92.00;;;;;;4787836;30;20082;-73
2023/03/18 03:39:44;;;;;;;15.43;7.00;;;14.40;92.30;;;;;;4756756;30;20042;-74
2023/03/18 03:42:10;;;;;;;13.18;7.85;;;14.40;93.20;;;;;;4786066;29;20036;-74
2023/03/18 03:44:36;;;;;;;16.15;7.25;;;14.30;93.20;;;;;;4787587;29;20470;-74
2023/03/18 03:47:02;;;;;;;15.75;7.13;;;14.30;93.40;;;;;;4787677;30;20500;-74
2023/03/18 03:49:28;;;;;;;13.02;7.35;;;14.20;93.70;;;;;;4771314;30;20089;-74
2023/03/18 03:51:54;;;;;;;15.70;7.20;;;14.20;93.90;;;;;;4787143;30;20035;-73
2023/03/18 03:54:19;;;;;;;13.20;6.95;;;14.20;94.20;;;;;;4771656;30;20036;-74
2023/03/18 03:56:46;;;;;;;11.23;6.47;;;14.20;94.40;;;;;;4787631;29;20048;-74
2023/03/18 03:59:12;;;;;;;13.27;7.13;;;14.20;94.60;;;;;;4756718;30;20540;-74
2023/03/18 04:01:38;;;;;;;16.33;7.90;;;14.20;95.00;;;;;;4787886;30;20040;-74
2023/03/18 04:04:04;;;;;;;15.40;7.65;;;14.20;95.20;;;;;;4789378;30;20130;-74
2023/03/18 04:06:30;;;;;;;13.75;7.45;;;14.20;95.80;;;;;;4788754;29;20465;-74
2023/03/18 04:08:55;;;;;;;15.73;7.85;;;14.20;96.10;;;;;;4787619;30;20043;-75
2023/03/18 04:11:21;;;;;;;13.82;7.40;;;14.20;96.80;;;;;;4788236;30;20050;-74
2023/03/18 04:13:47;;;;;;;15.23;7.75;;;14.20;97.20;;;;;;4787113;30;20053;-74
2023/03/18 04:16:13;;;;;;;16.90;8.10;;;14.20;97.70;;;;;;4787360;29;20076;-74
2023/03/18 04:18:39;;;;;;;15.85;8.60;;;14.10;98.10;;;;;;4787108;30;20023;-74
2023/03/18 04:21:05;;;;;;;18.65;9.65;;;14.20;98.40;;;;;;4786854;30;20078;-74
2023/03/18 04:23:32;;;;;;;19.00;9.20;;;14.20;98.90;;;;;;4771006;30;20070;-74
2023/03/18 04:25:58;;;;;;;18.10;10.00;;;14.10;99.20;;;;;;4765363;30;20062;-73
2023/03/18 04:28:23;;;;;;;14.02;8.68;;;14.10;99.80;;;;;;4755130;30;20036;-73
2023/03/18 04:30:49;;;;;;;18.73;9.57;;;14.00;99.90;;;;;;4754586;30;20512;-74
2023/03/18 04:33:16;;;;;;;17.05;9.77;;;14.00;99.90;;;;;;4753415;30;20054;-73
2023/03/18 04:35:42;;;;;;;17.30;9.40;;;14.00;99.90;;;;;;4754699;30;20121;-73
2023/03/18 04:38:08;;;;;;;17.25;9.00;;;14.00;99.90;;;;;;4768445;30;20048;-74
2023/03/18 04:40:34;;;;;;;21.65;10.48;;;14.00;99.90;;;;;;4754576;30;20059;-73
2023/03/18 04:42:59;;;;;;;18.58;10.15;;;14.00;99.90;;;;;;4768111;30;20541;-74
2023/03/18 04:45:25;;;;;;;16.70;10.35;;;14.00;99.90;;;;;;4754465;30;20443;-73
2023/03/18 04:47:51;;;;;;;21.88;11.00;;;14.00;99.90;;;;;;4754952;30;20439;-73
2023/03/18 04:50:18;;;;;;;21.70;11.75;;;13.90;99.90;;;;;;4754163;30;20032;-74
2023/03/18 04:52:44;;;;;;;21.67;11.63;;;13.80;99.90;;;;;;4754440;30;20066;-74
2023/03/18 04:55:11;;;;;;;19.98;11.82;;;13.80;99.90;;;;;;4754340;30;20066;-75
2023/03/18 04:57:37;;;;;;;20.15;12.02;;;13.70;99.90;;;;;;4767962;30;20063;-74
2023/03/18 05:00:10;;;;;;;17.90;11.10;;;13.70;99.90;;;;;;4768116;30;20387;-74
2023/03/18 05:02:36;;;;;;;23.63;12.10;;;13.70;99.90;;;;;;4754609;30;20032;-74
2023/03/18 05:05:02;;;;;;;21.92;11.70;;;13.70;99.90;;;;;;4767495;30;20055;-74
2023/03/18 05:07:27;;;;;;;17.20;12.63;;;13.70;99.90;;;;;;4767453;30;20033;-74
2023/03/18 05:09:54;;;;;;;22.55;12.65;;;13.70;99.90;;;;;;4754385;30;20085;-74
2023/03/18 05:12:19;;;;;;;21.48;12.43;;;13.70;99.90;;;;;;4754410;30;20092;-74
2023/03/18 05:14:45;;;;;;;22.02;12.00;;;13.60;99.90;;;;;;4767594;30;20123;-74
2023/03/18 05:17:14;;;;;;;21.30;11.65;;;13.60;99.90;;;;;;4767686;30;20206;-75
2023/03/18 05:19:45;;;;;;;24.75;12.82;;;13.60;99.90;;;;;;4753650;30;20028;-74
2023/03/18 05:22:12;;;;;;;19.35;12.10;;;13.60;99.90;;;;;;4767711;30;20047;-74
2023/03/18 05:24:47;;;;;;;21.98;12.15;;;13.60;99.90;;;;;;4765322;30;20535;-75
2023/03/18 05:27:15;;;;;;;17.27;11.95;;;13.60;99.90;;;;;;4789607;30;20043;-74
2023/03/18 05:29:41;;;;;;;18.85;12.55;;;13.60;99.90;;;;;;4773756;30;20441;-74
2023/03/18 05:32:08;;;;;;;17.10;11.82;;;13.70;99.90;;;;;;4789514;29;20230;-74
2023/03/18 05:34:36;;;;;;;17.77;12.07;;;13.70;99.90;;;;;;4787936;29;20039;-75
2023/03/18 05:37:03;;;;;;;20.65;13.40;;;13.70;99.90;;;;;;4787682;29;20131;-75
2023/03/18 05:39:30;;;;;;;17.10;12.30;;;13.70;99.90;;;;;;4789588;30;20031;-75
2023/03/18 05:41:56;;;;;;;20.13;13.10;;;13.60;99.90;;;;;;4789241;30;20051;-75
2023/03/18 05:44:22;;;;;;;19.77;12.65;;;13.70;99.90;;;;;;4787681;30;20039;-75
2023/03/18 05:46:49;;;;;;;18.48;12.30;;;13.70;99.90;;;;;;4787828;30;20065;-75
2023/03/18 05:49:15;;;;;;;20.73;12.40;;;13.70;99.90;;;;;;4789052;29;20074;-75
2023/03/18 05:51:41;;;;;;;21.65;13.38;;;13.70;99.90;;;;;;4788014;29;20409;-75
2023/03/18 05:54:08;;;;;;;22.80;13.07;;;13.70;99.90;;;;;;4772939;30;20039;-76
2023/03/18 05:56:34;;;;;;;19.83;12.65;;;13.70;99.90;;;;;;4790021;29;20051;-74
2023/03/18 05:58:59;;;;;;;23.55;13.07;;;13.60;99.90;;;;;;4789706;30;20074;-74
2023/03/18 06:01:25;;;;;;;20.23;12.57;;;13.70;99.90;;;;;;4789580;29;20039;-75
2023/03/18 06:03:52;;;;;;;23.85;13.13;;;13.60;99.90;;;;;;4789083;29;20035;-74
2023/03/18 06:06:18;;;;;;;22.90;14.25;;;13.60;99.90;;;;;;4773254;29;20043;-74
2023/03/18 06:08:45;;;;;;;22.20;13.70;;;13.60;99.90;;;;;;4789088;29;20047;-74
2023/03/18 06:11:11;;;;;;;22.13;13.45;;;13.60;99.90;;;;;;4788845;29;20043;-74
2023/03/18 06:13:37;;;;;;;21.10;13.48;;;13.50;99.90;;;;;;4789090;30;20046;-75
2023/03/18 06:16:04;;;;;;;22.48;13.85;;;13.50;99.90;;;;;;4788843;30;20042;-74
2023/03/18 06:18:29;;;;;;;21.02;13.73;;;13.50;99.90;;;;;;4788719;30;20084;-74
2023/03/18 06:20:56;;;;;;;23.35;14.70;;;13.50;99.90;;;;;;4788211;29;20039;-74
2023/03/18 06:23:22;;;;;;;23.40;15.45;;;13.40;99.90;;;;;;4788862;30;20039;-74
2023/03/18 06:25:48;;;;;;;25.08;14.10;;;13.40;99.90;;;;;;4788281;29;20089;-74
2023/03/18 06:28:14;;;;;;;21.92;13.90;;;13.30;99.90;;;;;;4788669;29;20473;-74
2023/03/18 06:30:40;;;;;;;23.55;15.25;;;13.40;99.90;;;;;;4788111;30;20124;-74
2023/03/18 06:33:07;;;;;;;19.98;14.32;;;13.40;99.90;;;;;;4788090;29;20481;-75
2023/03/18 06:35:33;;;;;;;19.10;14.20;;;13.40;99.90;;;;;;4788094;30;20492;-78
2023/03/18 06:37:58;;;;;;;20.38;14.25;;;13.40;99.90;;;;;;4788117;29;20051;-78
2023/03/18 06:40:24;;;;;;;19.80;13.88;;;13.40;99.90;;;;;;4788332;30;20043;-78
2023/03/18 06:42:50;;;;;;;25.13;15.95;;;13.50;99.90;;;;;;4787058;29;20396;-80
2023/03/18 06:45:16;;;;;;;23.60;16.13;;;13.50;99.90;;;;;;4785595;29;20043;-80
2023/03/18 06:47:43;;;;;;;23.63;15.50;;;13.40;99.90;;;;;;4787724;29;20042;-81
2023/03/18 06:50:10;;;;;;;28.27;16.40;;;13.40;99.90;;;;;;4786861;29;20050;-78
2023/03/18 06:52:37;;;;;;;22.92;15.35;;;13.30;99.90;;;;;;4787909;30;20495;-80
2023/03/18 06:55:05;;;;;;;25.85;17.33;;;13.30;99.90;;;;;;4772470;30;20039;-79
2023/03/18 06:57:31;;;;;;;23.95;17.00;;;13.30;99.90;;;;;;4787163;30;20414;-74
2023/03/18 06:59:57;;;;;;;24.08;16.55;;;13.20;99.90;;;;;;4786775;30;20032;-74
2023/03/18 07:02:24;;;;;;;23.08;15.70;;;13.20;99.90;;;;;;4789685;29;20425;-74
2023/03/18 07:04:50;;;;;;;22.98;15.82;;;13.20;99.90;;;;;;4771547;30;20092;-72
2023/03/18 07:07:16;;;;;;;24.58;15.55;;;13.30;99.90;;;;;;4787704;30;20048;-73
2023/03/18 07:09:43;;;;;;;24.65;16.33;;;13.30;99.90;;;;;;4787668;29;20031;-76
2023/03/18 07:12:12;;;;;;;24.23;15.70;;;13.30;99.90;;;;;;4787773;29;20106;-73
2023/03/18 07:14:38;;;;;;;25.02;16.38;;;13.40;99.90;;;;;;4787724;29;20116;-73
2023/03/18 07:17:04;;;;;;;22.58;15.68;;;13.40;99.90;;;;;;4786526;30;20362;-73
2023/03/18 07:19:32;;;;;;;24.83;15.70;;;13.40;99.90;;;;;;4788236;30;20044;-73
2023/03/18 07:21:58;;;;;;;23.75;16.58;;;13.40;99.90;;;;;;4787141;29;20031;-73
2023/03/18 07:24:24;;;;;;;26.17;15.60;;;13.40;99.90;;;;;;4786028;30;20124;-74
2023/03/18 07:26:50;;;;;;;25.13;16.02;;;13.40;99.90;;;;;;4787566;30;20043;-73
2023/03/18 07:29:16;;;;;;;23.95;16.40;;;13.40;99.90;;;;;;4771478;30;20134;-73
2023/03/18 07:31:42;;;;;;;22.83;15.48;;;13.40;99.90;;;;;;4786233;29;20468;-74
2023/03/18 07:34:08;;;;;;;22.02;15.32;;;13.50;99.90;;;;;;4771550;30;20045;-73
2023/03/18 07:36:35;;;;;;;19.85;15.55;;;13.50;99.90;;;;;;4770646;30;20035;-74
2023/03/18 07:39:02;;;;;;;25.05;15.57;;;13.50;99.90;;;;;;4771590;30;20465;-74
2023/03/18 07:41:28;;;;;;;22.38;15.95;;;13.50;99.90;;;;;;4770047;30;20058;-74
2023/03/18 07:43:54;;;;;;;25.83;16.02;;;13.60;99.90;;;;;;4767799;30;20040;-76
2023/03/18 07:46:20;;;;;;;25.98;15.63;;;13.60;99.90;;;;;;4765457;30;20464;-76
2023/03/18 07:48:47;;;;;;;21.95;15.38;;;13.70;99.90;;;;;;4770469;30;20039;-75
2023/03/18 07:51:14;;;;;;;19.33;15.38;;;13.70;99.90;;;;;;4770215;30;20175;-76
2023/03/18 07:53:40;;;;;;;18.88;14.52;;;13.80;99.90;;;;;;4787284;29;20058;-75
2023/03/18 07:56:08;;;;;;;20.17;15.18;;;13.80;99.90;;;;;;4771098;30;20054;-76
2023/03/18 07:58:35;;;;;;;24.02;15.48;;;13.80;99.90;;;;;;4769188;30;20039;-76
2023/03/18 08:01:01;;;;;;;18.65;14.00;;;13.90;99.90;;;;;;4788031;29;20035;-75
2023/03/18 08:03:27;;;;;;;18.33;14.02;;;14.00;99.90;;;;;;4789541;29;20039;-75
2023/03/18 08:05:53;;;;;;;19.77;13.73;;;14.10;99.90;;;;;;4788286;30;20035;-76
2023/03/18 08:08:20;;;;;;;21.48;14.32;;;14.10;99.90;;;;;;4758760;30;20382;-76
2023/03/18 08:10:45;;;;;;;21.52;13.07;;;14.20;99.90;;;;;;4790779;29;20035;-75
2023/03/18 08:13:11;;;;;;;21.83;12.10;;;14.10;99.90;;;;;;4791046;30;20103;-75
2023/03/18 08:15:38;;;;;;;18.13;12.85;;;14.20;99.90;;;;;;4790830;29;20418;-75
2023/03/18 08:18:03;;;;;;;18.83;12.45;;;14.30;99.90;;;;;;4774662;30;20074;-73
2023/03/18 08:20:30;;;;;;;18.92;11.88;;;14.30;99.90;;;;;;4774174;30;20063;-73
2023/03/18 08:22:56;;;;;;;17.60;11.52;;;14.30;99.90;;;;;;4790848;30;20035;-74
2023/03/18 08:25:22;;;;;;;17.73;11.85;;;14.30;99.90;;;;;;4790312;30;20067;-73
2023/03/18 08:27:49;;;;;;;15.65;10.95;;;14.30;99.90;;;;;;4774096;29;20039;-74
2023/03/18 08:30:15;;;;;;;20.38;11.88;;;14.20;99.90;;;;;;4789263;29;20393;-74
2023/03/18 08:32:41;;;;;;;16.13;10.32;;;14.20;99.90;;;;;;4774292;30;20043;-74
2023/03/18 08:35:08;;;;;;;15.85;10.35;;;14.20;99.90;;;;;;4790597;30;20481;-74
2023/03/18 08:37:35;;;;;;;15.30;10.27;;;14.20;99.90;;;;;;4773357;30;20032;-74
2023/03/18 08:40:01;;;;;;;17.88;10.48;;;14.30;99.90;;;;;;4789023;30;20024;-75
2023/03/18 08:42:27;;;;;;;12.88;9.85;;;14.30;99.90;;;;;;4788937;29;20031;-75
2023/03/18 08:44:53;;;;;;;11.43;8.27;;;14.40;99.90;;;;;;4788806;30;20046;-75
2023/03/18 08:47:20;;;;;;;13.52;9.48;;;14.50;99.90;;;;;;4758357;30;20403;-73
2023/03/18 08:49:45;;;;;;;12.98;9.15;;;14.60;99.90;;;;;;4789544;29;20035;-74
2023/03/18 08:52:11;;;;;;;15.10;8.98;;;14.50;99.90;;;;;;4789618;30;20122;-74
2023/03/18 08:54:37;;;;;;;10.68;8.75;;;14.40;99.90;;;;;;4790152;30;20035;-73
2023/03/18 08:57:03;;;;;;;13.55;8.65;;;14.40;99.90;;;;;;4790100;30;20039;-73
2023/03/18 08:59:29;;;;;;;11.15;8.30;;;14.40;99.90;;;;;;4789850;29;20118;-74
2023/03/18 09:01:55;;;;;;;10.88;8.23;;;14.30;99.90;;;;;;4773910;30;20042;-74
2023/03/18 09:04:21;;;;;;;11.68;8.35;;;14.40;99.90;;;;;;4789854;29;20067;-74
2023/03/18 09:06:47;;;;;;;12.95;8.90;;;14.40;99.90;;;;;;4781414;29;20448;-74
2023/03/18 09:09:14;;;;;;;12.93;8.68;;;14.40;99.90;;;;;;4807810;29;20084;-75
2023/03/18 09:11:40;;;;;;;10.88;8.15;;;14.40;99.90;;;;;;4791465;29;20045;-75
2023/03/18 09:14:07;;;;;;;10.13;6.82;;;14.30;99.90;;;;;;4807394;29;20062;-75
2023/03/18 09:16:34;;;;;;;10.23;7.38;;;14.40;99.90;;;;;;4807627;29;20433;-74
2023/03/18 09:19:00;;;;;;;11.52;7.35;;;14.50;99.90;;;;;;4807904;29;20083;-73
2023/03/18 09:21:26;;;;;;;12.23;8.45;;;14.60;99.90;;;;;;4806791;29;20145;-72
2023/03/18 09:23:51;;;;;;;12.70;7.75;;;14.70;99.90;;;;;;4791207;29;20495;-74
2023/03/18 09:26:17;;;;;;;11.07;8.25;;;14.70;99.90;;;;;;4791140;29;20491;-75
2023/03/18 09:28:43;;;;;;;11.88;8.35;;;14.80;99.90;;;;;;4808426;29;20479;-75
2023/03/18 09:31:08;;;;;;;13.52;8.15;;;14.90;99.90;;;;;;4809286;29;20103;-74
2023/03/18 09:33:35;;;;;;;10.23;7.72;;;14.90;99.90;;;;;;4807497;29;20047;-75
2023/03/18 09:36:03;;;;;;;11.38;7.03;;;14.90;99.90;;;;;;4807302;29;20049;-74
2023/03/18 09:38:28;;;;;;;8.80;7.00;;;14.90;99.90;;;;;;4806976;29;20027;-74
2023/03/18 09:41:07;;;;;;;9.80;7.32;;;15.10;99.90;;;;;;4791261;29;20138;-76
2023/03/18 09:44:16;;;;;;;10.18;8.05;;;15.30;99.90;;;;;;4807378;29;20031;-73
2023/03/18 09:47:14;;;;;;;9.93;7.28;;;15.60;99.90;;;;;;4745058;30;20506;-73
2023/03/18 09:50:01;;;;;;;12.35;7.70;;;15.90;99.90;;;;;;4734345;30;20114;-73
2023/03/18 09:52:51;;;;;;;11.32;7.22;;;16.20;99.90;;;;;;4765799;30;20561;-72
2023/03/18 09:55:26;;;;;;;11.38;7.20;;;16.30;99.90;;;;;;4771018;30;20115;-72
2023/03/18 09:57:56;;;;;;;10.23;5.70;;;16.30;99.90;;;;;;4769960;30;20043;-73
2023/03/18 10:00:29;;;;;;;12.15;6.30;;;16.40;99.90;;;;;;4775136;29;20547;-73
2023/03/18 10:02:58;;;;;;;;;;;16.60;99.90;;;;;;4807097;29;20030;-73
2023/03/18 10:05:52;;;;;;;8.80;6.72;;;16.70;99.80;;;;;;4806977;29;19939;-73
2023/03/18 10:08:33;;;;;;;9.93;6.93;;;16.90;99.80;;;;;;4801018;29;20050;-73
2023/03/18 10:11:05;;;;;;;8.90;6.88;;;17.00;99.30;;;;;;4806782;29;20035;-73
2023/03/18 10:13:37;;;;;;;11.15;6.97;;;17.00;99.20;;;;;;4806961;29;20503;-73
2023/03/18 10:16:10;;;;;;;9.20;6.30;;;17.00;98.80;;;;;;4807001;29;20074;-73
2023/03/18 10:18:40;;;;;;;7.93;5.95;;;17.00;98.30;;;;;;4806816;29;20038;-73
2023/03/18 10:21:34;;;;;;;8.38;5.75;;;17.00;98.30;;;;;;4806324;29;20046;-74
2023/03/18 10:24:30;;;;;;;7.93;5.68;;;17.00;98.10;;;;;;4804583;29;20125;-73
2023/03/18 10:27:16;;;;;;;10.45;6.63;;;16.90;98.10;;;;;;4805383;29;20055;-72
2023/03/18 10:29:54;;;;;;;10.32;5.75;;;16.80;98.30;;;;;;4807115;29;20130;-73
2023/03/18 10:32:39;;;;;;;6.32;5.22;;;16.90;98.50;;;;;;4806680;29;20535;-74
2023/03/18 10:35:30;;;;;;;9.80;6.10;;;16.90;98.50;;;;;;4806390;29;20042;-76
2023/03/18 10:38:03;;;;;;;6.15;4.95;;;17.00;98.00;;;;;;4806295;29;20142;-77
2023/03/18 10:40:35;;;;;;;9.15;5.30;;;17.00;98.00;;;;;;4789971;29;20446;-76
2023/03/18 10:43:03;;;;;;;7.63;5.88;;;17.10;98.10;;;;;;4805249;29;20125;-75
2023/03/18 10:45:32;;;;;;;5.85;4.93;;;17.10;98.00;;;;;;4805579;29;20464;-75
2023/03/18 10:47:57;;;;;;;7.38;4.72;;;17.10;97.80;;;;;;4794183;29;20032;-74
2023/03/18 10:50:48;;;;;;;8.65;4.93;;;17.20;97.70;;;;;;4786289;30;20035;-75
2023/03/18 10:53:41;;;;;;;5.35;4.70;;;17.20;97.50;;;;;;4788367;30;20106;-73
2023/03/18 10:56:12;;;;;;;7.72;5.03;;;17.40;98.00;;;;;;4788158;30;20481;-74
2023/03/18 10:58:39;;;;;;;5.60;4.32;;;17.50;97.30;;;;;;4787467;30;20047;-75
2023/03/18 11:01:07;;;;;;;6.28;4.30;;;17.70;96.90;;;;;;4786944;30;20035;-75
2023/03/18 11:04:07;;;;;;;6.25;4.05;;;18.00;95.70;;;;;;4786706;30;20039;-74
2023/03/18 11:06:40;;;;;;;5.25;4.38;;;18.10;95.30;;;;;;4757094;30;20516;-74
2023/03/18 11:09:11;;;;;;;8.93;4.22;;;18.40;94.80;;;;;;4786475;30;20035;-74
2023/03/18 11:11:45;;;;;;;5.55;3.17;;;18.50;94.20;;;;;;4786805;30;20148;-75
2023/03/18 11:14:21;;;;;;;5.03;3.20;;;18.60;93.50;;;;;;4786446;29;20035;-74
2023/03/18 11:16:56;;;;;;;4.95;3.67;;;18.70;92.80;;;;;;4769426;30;20127;-75
2023/03/18 11:19:47;;;;;;;4.68;3.20;;;18.80;92.70;;;;;;4781875;29;20035;-75
2023/03/18 11:22:23;;;;;;;8.45;3.88;;;18.90;92.20;;;;;;4784860;29;20031;-75
2023/03/18 11:25:15;;;;;;;6.20;3.10;;;19.00;91.60;;;;;;4784277;29;20500;-75
2023/03/18 11:28:04;;;;;;;4.47;2.60;;;19.00;91.30;;;;;;4785688;30;20043;-75
2023/03/18 11:30:44;;;;;;;4.88;3.33;;;19.10;91.30;;;;;;4787089;29;20031;-75
2023/03/18 11:33:10;;;;;;;5.13;3.10;;;19.00;90.50;;;;;;4787520;29;20035;-76
2023/03/18 11:35:36;;;;;;;4.18;2.92;;;19.10;90.80;;;;;;4788265;30;20475;-74
2023/03/18 11:38:03;;;;;;;5.20;2.42;;;19.20;90.90;;;;;;4788189;29;20085;-75
2023/03/18 11:40:30;;;;;;;4.55;1.70;;;19.30;90.10;;;;;;4788114;30;20031;-75
2023/03/18 11:43:01;;;;;;;3.20;1.80;;;19.50;88.90;;;;;;4766407;30;20490;-75
2023/03/18 11:45:49;;;;;;;3.88;1.40;;;19.70;87.90;;;;;;4786299;29;20053;-75
2023/03/18 11:48:36;;;;;;;4.05;1.70;;;19.80;87.50;;;;;;4786488;30;20088;-75
2023/03/18 11:51:11;;;;;;;4.93;1.98;;;20.10;86.00;;;;;;4786596;30;20118;-77
2023/03/18 11:54:04;;;;;;;3.63;1.85;;;20.20;84.50;;;;;;4770971;30;20100;-75
2023/03/18 11:56:30;;;;;;;;;;;20.30;83.50;;;;;;4786155;29;20050;-75
2023/03/18 11:59:11;;;;;;;3.75;1.90;;;20.20;83.00;;;;;;4786936;30;19913;-75
2023/03/18 12:01:52;;;;;;;2.78;1.85;;;19.90;81.70;;;;;;4770380;30;20031;-76
2023/03/18 12:04:37;;;;;;;5.60;2.10;;;19.90;83.10;;;;;;4770790;30;20035;-75
2023/03/18 12:07:17;;;;;;;5.32;1.90;;;19.80;83.00;;;;;;4787183;30;20039;-75
2023/03/18 12:10:08;;;;;;;3.95;1.88;;;19.80;82.50;;;;;;4787082;30;20031;-75
2023/03/18 12:12:48;;;;;;;2.95;1.90;;;19.70;81.30;;;;;;4787738;29;20103;-75
2023/03/18 12:15:26;;;;;;;6.07;2.30;;;19.50;82.50;;;;;;4787794;30;20124;-74
2023/03/18 12:18:10;;;;;;;4.82;2.22;;;19.40;82.90;;;;;;4771137;30;20042;-73
2023/03/18 12:20:52;;;;;;;6.50;2.05;;;19.20;83.30;;;;;;4787212;30;20054;-75
2023/03/18 12:23:20;;;;;;;2.78;1.23;;;19.10;83.90;;;;;;4785710;29;20031;-76
2023/03/18 12:26:08;;;;;;;3.28;0.90;;;18.90;82.70;;;;;;4786932;30;20082;-75
2023/03/18 12:28:59;;;;;;;4.60;1.23;;;18.70;81.70;;;;;;4786990;29;20477;-75
2023/03/18 12:31:36;;;;;;;3.72;1.20;;;18.60;82.40;;;;;;4787191;29;20510;-75
2023/03/18 12:34:03;;;;;;;5.05;1.85;;;18.50;83.10;;;;;;4771335;30;20046;-74
2023/03/18 12:36:47;;;;;;;6.40;1.90;;;18.40;84.40;;;;;;4786939;29;20039;-74
2023/03/18 12:39:35;;;;;;;3.40;1.60;;;18.40;85.60;;;;;;4771050;30;20039;-74
2023/03/18 12:42:13;;;;;;;3.40;1.50;;;18.40;86.40;;;;;;4770463;30;20062;-74
2023/03/18 12:44:53;;;;;;;4.13;2.05;;;18.40;86.40;;;;;;4786806;30;20035;-74
2023/03/18 12:47:44;;;;;;;3.63;2.22;;;18.30;86.20;;;;;;4787460;29;20039;-75
2023/03/18 12:50:12;;;;;;;3.83;2.20;;;18.30;86.40;;;;;;4789536;30;20031;-74
2023/03/18 12:52:47;;;;;;;5.20;2.03;;;18.10;86.70;;;;;;4789925;30;20034;-74